Latest Weather Observations for Horn Island

IDQ60801

Issued at 5:32 pm EST Tuesday 17 October 2017 (issued every 30 minutes, with the page automatically refreshed every 10 minutes)

About weather observations | Map of weather stations | Latest weather observations for QLD | Other Formats
Station Details ID: 027058 Name: HORN ISLAND Lat: -10.58 Lon: 142.29 Height: 4.0 m
Data from the previous 72 hours. | See also: Recent months at Horn Island
Date/Time
EST
Temp
°C
App
Temp
°C
Dew
Point
°C
Rel
Hum
%
Delta-T
°C
Wind Press
QNH
hPa
Press
MSL
hPa
Rain since
9am
mm
Dir  Spd
km/h
Gust
km/h
Spd
kts
Gust
kts
17/05:30pm 28.5 31.5 22.0 68 4.4 ENE 9 17 5 9 1006.1 - 2.4
17/05:00pm 28.9 32.2 22.6 69 4.3 N 9 11 5 6 1005.4 - 2.4
17/04:30pm 29.0 32.5 22.2 66 4.6 SW 7 11 4 6 1005.4 - 2.4
17/04:00pm 28.0 31.2 23.1 74 3.3 SSW 11 13 6 7 1005.6 - 2.4
17/03:30pm 26.3 29.9 24.3 89 1.4 S 13 20 7 11 1006.3 - 2.4
17/03:20pm 26.0 28.6 24.6 92 1.0 S 19 26 10 14 1006.5 - 2.4
17/03:04pm 25.6 26.9 23.3 87 1.6 SSW 22 33 12 18 1006.8 - 1.6
17/03:00pm 26.4 27.3 23.3 83 2.1 SSW 24 33 13 18 1006.7 1006.7 1.4
17/02:30pm 29.7 33.1 24.6 74 3.6 E 15 20 8 11 1006.6 - 1.4
17/02:00pm 29.7 33.3 24.3 73 3.8 N 13 20 7 11 1006.9 - 1.4
17/01:30pm 29.3 32.8 24.2 74 3.5 N 13 17 7 9 1007.4 - 1.4
17/01:00pm 29.0 32.6 23.7 73 3.7 N 11 17 6 9 1008.1 - 1.4
17/12:30pm 28.4 32.2 24.0 77 3.0 NNW 11 17 6 9 1008.8 - 1.2
17/12:00pm 28.8 32.1 23.9 75 3.4 N 13 17 7 9 1009.3 1009.3 1.2
17/11:45am 28.8 34.7 26.2 86 1.8 WNW 7 11 4 6 1009.5 - 1.2
17/11:30am 27.9 32.7 24.5 82 2.4 SSE 7 11 4 6 1009.6 - 1.2
17/11:29am 27.9 32.6 24.3 81 2.5 SE 7 11 4 6 1009.6 - 1.2
17/11:00am 29.3 33.2 24.2 74 3.5 E 11 17 6 9 1009.9 - 0.4
17/10:30am 28.5 32.5 25.1 82 2.4 ENE 13 17 7 9 1009.9 - 0.4
17/10:13am 27.3 32.2 24.4 84 2.0 W 6 7 3 4 1010.0 - 0.4
17/10:00am 27.3 32.7 25.1 88 1.5 WNW 6 7 3 4 1010.1 - 0.4
17/09:45am 27.1 31.8 24.9 88 1.5 W 9 11 5 6 1010.3 - 0.4
17/09:30am 27.2 32.8 25.4 90 1.3 S 6 9 3 5 1010.3 - 0.4
17/09:15am 26.9 32.8 25.3 91 1.1 SW 4 7 2 4 1010.2 - 0.4
17/09:02am 26.0 30.8 24.4 91 1.1 WSW 7 13 4 7 1010.2 - 0.0
17/09:00am 25.7 30.2 23.9 90 1.2 W 7 13 4 7 1010.3 1010.3 7.2
17/08:41am 26.2 29.4 23.7 86 1.7 SW 13 20 7 11 1010.2 - 1.6
17/08:38am 26.8 31.0 24.1 85 1.9 SSW 9 17 5 9 1010.2 - 0.6
17/08:30am 27.8 32.2 24.4 82 2.4 S 9 15 5 8 1009.9 - 0.0
17/08:00am 27.4 31.7 24.3 83 2.1 E 9 13 5 7 1009.4 - 0.0
17/07:51am 27.2 31.5 24.3 84 2.0 ENE 9 11 5 6 1009.1 - 0.0
17/07:32am 27.2 31.9 24.3 84 2.0 NE 7 11 4 6 1008.7 - 0.0
17/07:30am 26.9 31.4 24.0 84 2.0 NE 7 11 4 6 1008.7 - 0.0
17/07:00am 26.4 32.6 24.6 90 1.2 CALM 0 0 0 0 1008.3 - 0.0
17/06:54am 26.4 32.7 24.8 91 1.1 CALM 0 0 0 0 1008.2 - 0.0
17/06:30am 26.1 32.1 24.3 90 1.2 CALM 0 0 0 0 1008.0 - 0.0
17/06:18am 25.8 31.5 23.8 89 1.4 CALM 0 6 0 3 1007.9 - 0.0
17/06:00am 25.4 29.9 22.9 86 1.7 ENE 4 7 2 4 1007.6 1007.6 0.0
17/05:30am 26.0 30.5 23.9 88 1.4 ENE 7 9 4 5 1007.3 - 0.0
17/05:00am 26.0 30.5 23.9 88 1.4 ENE 7 9 4 5 1006.9 - 0.0
17/04:30am 26.1 30.1 23.8 87 1.6 E 9 11 5 6 1006.8 - 0.0
17/04:00am 26.3 30.4 24.0 87 1.6 E 9 13 5 7 1006.4 - 0.0
17/03:30am 26.4 30.2 24.1 87 1.6 ENE 11 15 6 8 1006.4 - 0.0
17/03:00am 26.5 30.3 24.0 86 1.7 E 11 15 6 8 1006.5 1006.5 0.0
17/02:30am 26.4 30.1 23.9 86 1.7 ENE 11 13 6 7 1006.8 - 0.0
17/02:00am 26.6 30.2 23.7 84 2.0 E 11 15 6 8 1007.2 - 0.0
17/01:30am 26.8 30.2 24.1 85 1.9 E 13 19 7 10 1007.7 - 0.0
17/01:00am 26.9 30.0 24.2 85 1.9 E 15 20 8 11 1008.3 - 0.0
17/12:30am 26.9 29.8 23.8 83 2.1 E 15 20 8 11 1008.8 - 0.0
17/12:14am 27.0 30.1 24.1 84 2.0 E 15 22 8 12 1008.7 - 0.0
17/12:00am 27.0 29.6 23.9 83 2.1 ESE 17 22 9 12 1009.3 1009.3 0.0
 
Date/Time
EST
Temp
°C
App
Temp
°C
Dew
Point
°C
Rel
Hum
%
Delta-T
°C
Wind Press
QNH
hPa
Press
MSL
hPa
Rain since
9am
mm
Dir  Spd
km/h
Gust
km/h
Spd
kts
Gust
kts
16/11:50pm 27.0 30.6 24.3 85 1.9 ESE 13 17 7 9 1009.3 - 0.0
16/11:30pm 26.9 30.4 24.2 85 1.9 ESE 13 17 7 9 1009.3 - 0.0
16/11:00pm 27.0 30.3 23.9 83 2.1 ESE 13 17 7 9 1009.3 - 0.0
16/10:30pm 27.1 30.0 23.8 82 2.3 ESE 15 20 8 11 1009.3 - 0.0
16/10:00pm 27.2 30.3 24.1 83 2.1 ESE 15 20 8 11 1009.1 - 0.0
16/09:30pm 27.1 30.4 23.8 82 2.3 ESE 13 20 7 11 1008.9 - 0.0
16/09:00pm 27.2 29.8 23.9 82 2.3 ESE 17 20 9 11 1008.5 1008.5 0.0
16/08:30pm 27.3 29.9 24.0 82 2.3 SE 17 22 9 12 1008.2 - 0.0
16/08:00pm 27.3 30.1 23.7 81 2.5 ESE 15 19 8 10 1007.6 - 0.0
16/07:57pm 27.3 30.1 23.7 81 2.5 ESE 15 19 8 10 1007.6 - 0.0
16/07:30pm 27.4 30.4 24.0 82 2.3 ESE 15 19 8 10 1007.1 - 0.0
16/07:02pm 27.4 30.4 24.0 82 2.3 E 15 20 8 11 1006.7 - 0.0
16/07:00pm 27.3 30.3 24.0 82 2.3 E 15 20 8 11 1006.7 - 0.0
16/06:30pm 27.4 30.0 24.0 82 2.3 E 17 22 9 12 1006.3 - 0.0
16/06:00pm 27.9 29.9 23.9 79 2.8 E 20 28 11 15 1005.9 1005.9 0.0
16/05:30pm 28.2 30.2 24.0 78 2.9 E 20 26 11 14 1005.4 - 0.0
16/05:00pm 28.5 29.9 23.6 75 3.4 E 22 28 12 15 1005.3 - 0.0
16/04:30pm 30.1 32.2 23.8 69 4.4 E 19 24 10 13 1005.1 - 0.0
16/04:00pm 29.3 30.3 22.8 68 4.4 ENE 22 30 12 16 1005.6 - 0.0
16/03:30pm 30.5 32.2 23.4 66 4.9 E 20 28 11 15 1005.7 - 0.0
16/03:00pm 30.6 31.9 23.3 65 5.0 E 22 33 12 18 1006.2 1006.2 0.0
16/02:30pm 29.8 30.5 23.0 67 4.7 E 24 32 13 17 1006.5 - 0.0
16/02:00pm 29.8 30.5 23.0 67 4.7 E 24 33 13 18 1006.9 - 0.0
16/01:30pm 30.0 29.9 22.9 65 4.9 E 28 35 15 19 1007.4 - 0.0
16/01:00pm 30.7 31.6 23.9 67 4.7 E 26 35 14 19 1007.9 - 0.0
16/12:30pm 30.2 30.9 23.6 67 4.6 E 26 37 14 20 1008.5 - 0.0
16/12:00pm 30.6 31.6 23.5 66 4.9 ENE 24 35 13 19 1008.9 1008.9 0.0
16/11:30am 30.1 31.3 22.5 63 5.2 E 20 28 11 15 1009.2 - 0.0
16/11:00am 30.7 32.1 23.6 66 4.9 ESE 22 28 12 15 1009.5 - 0.0
16/10:30am 29.8 30.1 23.0 67 4.7 E 26 32 14 17 1009.7 - 0.0
16/10:00am 29.5 30.3 23.2 69 4.3 E 24 32 13 17 1009.8 - 0.0
16/09:30am 29.6 31.5 23.5 69 4.2 E 19 32 10 17 1009.9 - 0.0
16/09:00am 29.5 31.2 23.4 69 4.2 ESE 20 30 11 16 1009.7 1009.7 0.0
16/08:30am 28.2 30.0 23.6 76 3.2 SE 20 28 11 15 1009.7 - 0.0
16/08:00am 27.6 29.2 23.2 77 3.0 SE 20 26 11 14 1009.5 - 0.0
16/07:30am 26.9 29.2 23.4 81 2.4 SE 17 26 9 14 1009.3 - 0.0
16/07:00am 25.8 28.9 23.5 87 1.6 SE 13 19 7 10 1008.8 - 0.0
16/06:30am 25.2 28.3 23.6 91 1.1 SSE 13 17 7 9 1008.5 - 0.0
16/06:00am 24.9 28.4 23.5 92 1.0 SSE 11 17 6 9 1007.9 1007.9 0.0
16/05:30am 24.8 28.6 23.4 92 1.0 SSE 9 13 5 7 1007.5 - 0.0
16/05:00am 25.0 28.8 23.4 91 1.1 SSE 9 13 5 7 1007.3 - 0.0
16/04:30am 25.0 28.8 23.4 91 1.1 SSE 9 13 5 7 1007.1 - 0.0
16/04:00am 25.0 28.7 23.2 90 1.2 SSE 9 11 5 6 1006.9 - 0.0
16/03:55am 25.0 28.7 23.2 90 1.2 SSE 9 11 5 6 1006.8 - 0.0
16/03:30am 24.9 28.9 23.7 93 0.8 SSE 9 13 5 7 1007.0 - 0.0
16/03:24am 24.8 29.2 23.8 94 0.7 SE 7 11 4 6 1007.0 - 0.0
16/03:20am 24.4 28.3 23.0 92 0.9 SE 7 11 4 6 1007.0 - 0.0
16/03:00am 23.4 28.0 21.7 90 1.1 CALM 0 0 0 0 1007.1 1007.1 0.0
16/02:49am 23.1 27.3 21.0 88 1.4 CALM 0 6 0 3 1007.1 - 0.0
16/02:30am 25.0 29.2 23.4 91 1.1 SE 7 9 4 5 1007.2 - 0.0
16/02:16am 24.9 28.9 23.1 90 1.2 SE 7 9 4 5 1007.2 - 0.0
16/02:00am 24.3 27.9 22.0 87 1.5 SE 6 7 3 4 1007.4 - 0.0
16/01:57am 25.0 29.2 23.1 89 1.3 SE 6 7 3 4 1007.3 - 0.0
16/01:30am 25.0 29.0 23.1 89 1.3 SE 7 9 4 5 1007.6 - 0.0
16/01:00am 25.3 29.5 23.2 88 1.4 SE 6 9 3 5 1007.8 - 0.0
16/12:30am 25.4 29.6 23.1 87 1.6 SE 6 9 3 5 1007.8 - 0.0
16/12:00am 25.7 29.8 23.2 86 1.7 SE 7 11 4 6 1008.0 1008.0 0.0
 
Date/Time
EST
Temp
°C
App
Temp
°C
Dew
Point
°C
Rel
Hum
%
Delta-T
°C
Wind Press
QNH
hPa
Press
MSL
hPa
Rain since
9am
mm
Dir  Spd
km/h
Gust
km/h
Spd
kts
Gust
kts
15/11:30pm 25.8 29.0 23.1 85 1.8 ESE 11 15 6 8 1008.0 - 0.0
15/11:00pm 26.3 28.8 23.2 83 2.1 SE 15 22 8 12 1008.1 - 0.0
15/10:30pm 26.4 28.6 23.3 83 2.1 ESE 17 24 9 13 1008.0 - 0.0
15/10:00pm 26.4 28.1 23.1 82 2.2 ESE 19 28 10 15 1007.8 - 0.0
15/09:30pm 26.4 27.9 23.1 82 2.2 ESE 20 28 11 15 1007.4 - 0.0
15/09:00pm 26.6 27.9 23.3 82 2.3 SE 22 30 12 16 1007.2 1007.2 0.0
15/08:30pm 26.7 28.4 23.4 82 2.3 ESE 20 28 11 15 1007.1 - 0.0
15/08:00pm 26.7 28.3 23.2 81 2.4 ESE 20 28 11 15 1006.6 - 0.0
15/07:30pm 26.9 28.2 23.4 81 2.4 ESE 22 30 12 16 1006.3 - 0.0
15/07:00pm 27.0 28.3 23.3 80 2.5 E 22 30 12 16 1005.9 - 0.0
15/06:30pm 27.3 28.8 23.1 78 2.9 E 20 26 11 14 1005.6 - 0.0
15/06:00pm 27.7 28.7 22.9 75 3.3 E 22 30 12 16 1005.2 1005.2 0.0
15/05:30pm 28.4 29.5 23.1 73 3.6 E 22 32 12 17 1004.9 - 0.0
15/05:00pm 28.7 29.4 22.9 71 4.0 E 24 35 13 19 1004.8 - 0.0
15/04:30pm 29.1 29.3 22.8 69 4.3 E 26 35 14 19 1004.6 - 0.0
15/04:00pm 29.6 29.8 23.5 69 4.2 E 28 37 15 20 1004.5 - 0.0
15/03:30pm 29.8 30.0 23.5 69 4.3 E 28 37 15 20 1004.6 - 0.0
15/03:00pm 29.4 29.1 23.3 69 4.2 E 30 39 16 21 1004.8 1004.8 0.0
15/02:30pm 29.8 30.0 23.5 69 4.3 E 28 37 15 20 1005.1 - 0.0
15/02:00pm 29.7 29.6 22.9 67 4.6 E 28 35 15 19 1005.4 - 0.0
15/01:30pm 31.3 31.9 24.2 66 5.0 E 28 35 15 19 1006.0 - 0.0
15/01:00pm 30.2 29.8 23.1 65 4.9 E 30 37 16 20 1006.3 - 0.0
15/12:30pm 29.9 29.4 22.9 66 4.8 E 30 37 16 20 1006.9 - 0.0
15/12:00pm 30.8 30.8 22.4 61 5.7 E 26 35 14 19 1007.5 1007.5 0.0
15/11:30am 29.9 29.4 22.9 66 4.8 ESE 30 39 16 21 1008.1 - 0.0
15/11:00am 30.1 30.6 23.3 67 4.7 E 26 33 14 18 1008.5 - 0.0
15/10:30am 29.3 29.4 22.5 67 4.6 E 26 33 14 18 1008.9 - 0.0
15/10:00am 29.4 31.2 23.3 69 4.2 E 19 24 10 13 1009.0 - 0.0
15/09:30am 28.5 29.9 22.5 70 4.1 E 19 26 10 14 1009.4 - 0.0
15/09:11am 28.2 29.8 22.9 73 3.6 SE 19 26 10 14 1009.4 - 0.0
15/09:00am 28.2 29.7 23.1 74 3.5 SE 20 30 11 16 1009.5 1009.5 0.0
15/08:30am 27.7 29.1 22.9 75 3.3 ESE 20 28 11 15 1009.3 - 0.0
15/08:00am 27.0 29.3 22.8 78 2.8 SE 15 24 8 13 1009.1 - 0.0
15/07:30am 26.4 29.5 22.9 81 2.4 SE 11 17 6 9 1008.8 - 0.0
15/07:00am 25.2 28.7 22.9 87 1.6 SSE 9 13 5 7 1008.3 - 0.0
15/06:30am 24.5 28.0 22.9 91 1.1 SSE 9 13 5 7 1008.0 - 0.0
15/06:00am 24.4 27.9 22.8 91 1.1 S 9 13 5 7 1007.6 1007.6 0.0
15/05:30am 24.4 28.1 22.5 89 1.3 SE 7 11 4 6 1007.5 - 0.0
15/05:00am 24.6 27.7 22.8 90 1.2 S 11 15 6 8 1007.3 - 0.0
15/04:30am 24.6 28.4 22.8 90 1.2 S 7 11 4 6 1007.0 - 0.0
15/04:00am 24.9 28.4 22.8 88 1.4 S 9 13 5 7 1006.7 - 0.0
15/03:30am 25.3 28.4 22.8 86 1.7 SSE 11 15 6 8 1006.7 - 0.0
15/03:00am 25.3 29.1 22.8 86 1.7 SSE 7 9 4 5 1006.8 1006.8 0.0
15/02:30am 25.3 29.2 22.6 85 1.8 SE 6 7 3 4 1006.9 - 0.0
15/02:00am 25.4 29.2 22.7 85 1.8 ESE 7 11 4 6 1007.1 - 0.0
15/01:30am 25.3 29.2 22.6 85 1.8 S 6 9 3 5 1007.5 - 0.0
15/01:00am 25.6 29.0 22.7 84 2.0 SSE 9 13 5 7 1007.9 - 0.0
15/12:30am 25.6 28.1 22.5 83 2.1 ESE 13 17 7 9 1008.2 - 0.0
15/12:00am 25.8 28.3 22.5 82 2.2 ESE 13 17 7 9 1008.4 1008.4 0.0
 
Date/Time
EST
Temp
°C
App
Temp
°C
Dew
Point
°C
Rel
Hum
%
Delta-T
°C
Wind Press
QNH
hPa
Press
MSL
hPa
Rain since
9am
mm
Dir  Spd
km/h
Gust
km/h
Spd
kts
Gust
kts
14/11:30pm 25.9 28.0 22.4 81 2.4 ESE 15 20 8 11 1008.8 - 0.0
14/11:00pm 26.1 26.9 22.4 80 2.5 ESE 22 28 12 15 1008.9 - 0.0
14/10:30pm 26.2 26.9 22.3 79 2.6 ESE 22 28 12 15 1008.8 - 0.0
14/10:00pm 26.3 26.7 22.4 79 2.6 ESE 24 33 13 18 1008.8 - 0.0
14/09:30pm 26.4 27.2 22.5 79 2.6 ESE 22 28 12 15 1008.7 - 0.0
14/09:00pm 26.4 27.9 22.7 80 2.5 ESE 19 26 10 14 1008.5 1008.5 0.0
14/08:30pm 26.3 27.4 22.4 79 2.6 ESE 20 28 11 15 1008.3 - 0.0
14/08:00pm 26.5 27.2 22.3 78 2.8 ESE 22 33 12 18 1007.8 - 0.0
14/07:30pm 26.6 27.4 22.4 78 2.8 ESE 22 32 12 17 1007.4 - 0.0
14/07:00pm 26.8 27.8 22.2 76 3.1 ESE 20 30 11 16 1007.0 - 0.0
14/06:30pm 27.1 28.2 22.3 75 3.2 ESE 20 32 11 17 1006.7 - 0.0
14/06:00pm 27.4 27.5 21.9 72 3.7 ESE 24 32 13 17 1006.5 1006.5 0.0

Other Formats:

Comma delimited format used in spreadsheet applications
http://www.bom.gov.au/fwo/IDQ60801/IDQ60801.94174.axf

JavaScript Object Notation format (JSON) in row-major order
http://www.bom.gov.au/fwo/IDQ60801/IDQ60801.94174.json